createdAt,value
2022-07-30T00:02:05.640Z,19.10
2022-07-30T00:04:32.614Z,19.10
2022-07-30T00:07:00.306Z,19.20
2022-07-30T00:09:27.216Z,19.20
2022-07-30T00:11:53.903Z,19.20
2022-07-30T00:14:20.753Z,19.20
2022-07-30T00:16:47.504Z,19.20
2022-07-30T00:19:14.891Z,19.20
2022-07-30T00:21:42.232Z,19.10
2022-07-30T00:24:10.239Z,19.10
2022-07-30T00:26:37.234Z,19.10
2022-07-30T00:29:05.043Z,19.00
2022-07-30T00:31:32.194Z,18.90
2022-07-30T00:33:58.954Z,18.90
2022-07-30T00:36:25.954Z,18.90
2022-07-30T00:38:52.656Z,18.90
2022-07-30T00:41:19.311Z,18.80
2022-07-30T00:43:46.039Z,18.80
2022-07-30T00:46:14.754Z,18.90
2022-07-30T00:48:42.585Z,18.90
2022-07-30T00:51:09.666Z,18.90
2022-07-30T00:53:37.012Z,18.90
2022-07-30T00:56:04.510Z,18.90
2022-07-30T00:58:31.424Z,18.80
2022-07-30T01:00:58.204Z,18.70
2022-07-30T01:03:24.982Z,18.60
2022-07-30T01:05:51.738Z,18.60
2022-07-30T01:08:18.470Z,18.60
2022-07-30T01:10:45.158Z,18.60
2022-07-30T01:13:12.747Z,18.50
2022-07-30T01:15:39.510Z,18.60
2022-07-30T01:18:10.022Z,18.60
2022-07-30T01:20:38.206Z,18.50
2022-07-30T01:23:14.607Z,18.50
2022-07-30T01:26:01.969Z,18.30
2022-07-30T01:28:35.582Z,18.40
2022-07-30T01:31:04.230Z,18.40
2022-07-30T01:33:32.526Z,18.40
2022-07-30T01:36:00.653Z,18.30
2022-07-30T01:38:31.167Z,18.20
2022-07-30T01:41:03.665Z,18.10
2022-07-30T01:43:32.943Z,18.00
2022-07-30T01:46:02.108Z,18.00
2022-07-30T01:48:29.742Z,17.90
2022-07-30T01:51:00.490Z,18.00
2022-07-30T01:53:31.381Z,18.00
2022-07-30T01:56:00.217Z,18.00
2022-07-30T01:58:31.693Z,18.00
2022-07-30T02:00:59.018Z,18.00
2022-07-30T02:03:27.025Z,18.00
2022-07-30T02:06:17.690Z,18.00
2022-07-30T02:09:10.587Z,17.90
2022-07-30T02:12:03.093Z,17.80
2022-07-30T02:14:49.357Z,17.80
2022-07-30T02:17:22.295Z,17.70
2022-07-30T02:19:57.787Z,17.70
2022-07-30T02:22:28.771Z,17.80
2022-07-30T02:24:58.506Z,17.80
2022-07-30T02:27:28.829Z,17.90
2022-07-30T02:29:59.424Z,17.90
2022-07-30T02:32:30.610Z,17.90
2022-07-30T02:35:00.519Z,17.90
2022-07-30T02:37:41.482Z,17.90
2022-07-30T02:40:14.192Z,17.80
2022-07-30T02:42:42.799Z,17.80
2022-07-30T02:45:11.337Z,17.70
2022-07-30T02:47:39.665Z,17.70
2022-07-30T02:50:08.964Z,17.60
2022-07-30T02:52:37.827Z,17.60
2022-07-30T02:55:06.021Z,17.60
2022-07-30T02:57:33.999Z,17.50
2022-07-30T03:00:02.440Z,17.40
2022-07-30T03:02:31.468Z,17.40
2022-07-30T03:05:00.050Z,17.30
2022-07-30T03:07:28.725Z,17.20
2022-07-30T03:09:56.946Z,17.10
2022-07-30T03:12:24.696Z,17.00
2022-07-30T03:14:51.828Z,16.90
2022-07-30T03:17:20.402Z,17.00
2022-07-30T03:19:49.442Z,16.90
2022-07-30T03:22:18.218Z,16.80
2022-07-30T03:24:47.165Z,16.80
2022-07-30T03:27:16.088Z,16.90
2022-07-30T03:29:45.831Z,16.80
2022-07-30T03:32:13.878Z,16.90
2022-07-30T03:34:42.547Z,16.70
2022-07-30T03:37:11.275Z,16.80
2022-07-30T03:39:38.963Z,16.80
2022-07-30T03:42:07.871Z,16.80
2022-07-30T03:44:35.241Z,16.90
2022-07-30T03:47:05.065Z,17.00
2022-07-30T03:49:32.915Z,16.90
2022-07-30T03:52:01.116Z,16.90
2022-07-30T03:54:28.159Z,16.90
2022-07-30T03:56:55.017Z,16.90
2022-07-30T03:59:21.831Z,16.80
2022-07-30T04:01:48.633Z,16.80
2022-07-30T04:04:15.345Z,16.80
2022-07-30T04:06:43.031Z,16.80
2022-07-30T04:09:11.946Z,16.80
2022-07-30T04:11:41.597Z,16.80
2022-07-30T04:14:09.115Z,16.90
2022-07-30T04:16:54.789Z,16.80
2022-07-30T04:19:44.431Z,16.90
2022-07-30T04:22:12.928Z,16.80
2022-07-30T04:24:40.951Z,16.60
2022-07-30T04:27:07.910Z,16.50
2022-07-30T04:29:34.938Z,16.50
2022-07-30T04:32:01.826Z,16.40
2022-07-30T04:34:28.567Z,16.30
2022-07-30T04:36:55.272Z,16.30
2022-07-30T04:39:21.967Z,16.30
2022-07-30T04:41:50.197Z,16.30
2022-07-30T04:44:20.312Z,16.30
2022-07-30T04:46:47.826Z,16.30
2022-07-30T04:49:17.459Z,16.30
2022-07-30T04:51:45.415Z,16.40
2022-07-30T04:54:15.240Z,16.40
2022-07-30T04:56:53.377Z,16.40
2022-07-30T04:59:24.770Z,16.50
2022-07-30T05:01:52.526Z,16.50
2022-07-30T05:04:22.342Z,16.60
2022-07-30T05:06:49.688Z,16.70
2022-07-30T05:09:17.060Z,16.80
2022-07-30T05:11:51.482Z,16.80
2022-07-30T05:14:18.158Z,16.90
2022-07-30T05:16:44.826Z,17.00
2022-07-30T05:19:11.946Z,17.10
2022-07-30T05:21:38.639Z,17.30
2022-07-30T05:24:05.661Z,17.30
2022-07-30T05:26:32.484Z,17.40
2022-07-30T05:28:59.168Z,17.60
2022-07-30T05:31:26.096Z,17.60
2022-07-30T05:34:00.170Z,17.80
2022-07-30T05:36:29.335Z,17.90
2022-07-30T05:38:55.998Z,17.90
2022-07-30T05:41:32.272Z,18.10
2022-07-30T05:44:00.164Z,18.10
2022-07-30T05:46:27.259Z,18.20
2022-07-30T05:48:54.160Z,18.30
2022-07-30T05:51:22.149Z,18.40
2022-07-30T05:53:49.239Z,18.50
2022-07-30T05:56:16.022Z,18.60
2022-07-30T05:58:43.160Z,18.70
2022-07-30T06:01:09.897Z,18.80
2022-07-30T06:03:36.647Z,18.80
2022-07-30T06:06:04.957Z,18.90
2022-07-30T06:08:31.947Z,19.00
2022-07-30T06:10:58.717Z,19.10
2022-07-30T06:13:25.622Z,19.10
2022-07-30T06:15:52.445Z,19.20
2022-07-30T06:18:19.202Z,19.30
2022-07-30T06:20:51.790Z,19.40
2022-07-30T06:23:18.887Z,19.50
2022-07-30T06:25:45.569Z,19.70
2022-07-30T06:28:35.243Z,19.90
2022-07-30T06:30:59.261Z,20.30
2022-07-30T06:33:26.043Z,20.90
2022-07-30T06:35:52.742Z,21.70
2022-07-30T06:38:19.446Z,22.90
2022-07-30T06:40:46.101Z,24.20
2022-07-30T06:43:13.001Z,25.40
2022-07-30T06:45:40.065Z,26.50
2022-07-30T06:48:06.906Z,27.60
2022-07-30T06:50:35.425Z,28.60
2022-07-30T06:53:02.089Z,29.50
2022-07-30T06:55:28.756Z,30.30
2022-07-30T06:57:55.436Z,31.10
2022-07-30T07:00:22.105Z,31.70
2022-07-30T07:02:48.764Z,32.40
2022-07-30T07:05:15.570Z,32.90
2022-07-30T07:07:49.098Z,33.40
2022-07-30T07:10:24.896Z,33.70
2022-07-30T07:12:51.617Z,34.00
2022-07-30T07:15:18.326Z,34.20
2022-07-30T07:17:45.067Z,34.30
2022-07-30T07:20:11.850Z,34.20
2022-07-30T07:22:38.691Z,33.90
2022-07-30T07:25:06.034Z,33.70
2022-07-30T07:27:32.842Z,33.60
2022-07-30T07:30:04.841Z,33.20
2022-07-30T07:32:33.527Z,32.80
2022-07-30T07:35:00.218Z,32.40
2022-07-30T07:37:27.110Z,31.80
2022-07-30T07:39:53.896Z,31.20
2022-07-30T07:42:20.665Z,30.70
2022-07-30T07:44:47.359Z,30.20
2022-07-30T07:47:14.207Z,29.70
2022-07-30T07:49:40.940Z,29.20
2022-07-30T07:52:07.630Z,29.00
2022-07-30T07:54:34.324Z,28.70
2022-07-30T07:57:03.193Z,28.60
2022-07-30T07:59:40.188Z,28.60
2022-07-30T08:02:08.392Z,28.50
2022-07-30T08:04:35.664Z,28.60
2022-07-30T08:07:03.381Z,28.60
2022-07-30T08:09:42.028Z,28.70
2022-07-30T08:12:12.185Z,28.80
2022-07-30T08:14:39.088Z,29.00
2022-07-30T08:17:06.367Z,29.10
2022-07-30T08:19:33.989Z,29.30
2022-07-30T08:22:00.712Z,29.40
2022-07-30T08:24:27.374Z,29.50
2022-07-30T08:26:54.124Z,29.70
2022-07-30T08:29:21.107Z,29.80
2022-07-30T08:31:47.787Z,29.90
2022-07-30T08:34:14.647Z,30.00
2022-07-30T08:36:41.810Z,30.00
2022-07-30T08:39:08.883Z,29.90
2022-07-30T08:41:38.829Z,29.80
2022-07-30T08:44:12.674Z,29.90
2022-07-30T08:46:47.374Z,29.90
2022-07-30T08:49:14.842Z,30.00
2022-07-30T08:51:42.093Z,30.10
2022-07-30T08:54:09.430Z,30.30
2022-07-30T08:56:36.938Z,30.40
2022-07-30T08:59:04.005Z,30.50
2022-07-30T09:01:30.730Z,30.40
2022-07-30T09:03:57.600Z,30.40
2022-07-30T09:06:24.449Z,30.50
2022-07-30T09:08:51.114Z,30.50
2022-07-30T09:11:17.786Z,30.50
2022-07-30T09:13:44.746Z,30.60
2022-07-30T09:16:24.902Z,30.70
2022-07-30T09:18:53.110Z,30.90
2022-07-30T09:21:28.537Z,31.20
2022-07-30T09:24:01.107Z,31.40
2022-07-30T09:26:29.421Z,31.70
2022-07-30T09:29:16.804Z,31.90
2022-07-30T09:32:07.323Z,31.90
2022-07-30T09:34:39.362Z,31.90
2022-07-30T09:37:18.420Z,31.90
2022-07-30T09:39:59.493Z,32.10
2022-07-30T09:42:28.862Z,32.30
2022-07-30T09:45:13.813Z,32.60
2022-07-30T09:47:45.115Z,32.50
2022-07-30T09:53:09.243Z,32.10
2022-07-30T09:58:27.448Z,32.50
2022-07-30T10:00:59.614Z,32.70
2022-07-30T10:03:33.965Z,32.90
2022-07-30T10:06:05.239Z,33.00
2022-07-30T10:08:39.713Z,32.80
2022-07-30T10:11:09.586Z,32.60
2022-07-30T10:13:39.271Z,32.40
2022-07-30T10:16:07.181Z,32.60
2022-07-30T10:18:35.818Z,33.00
2022-07-30T10:21:05.314Z,33.20
2022-07-30T10:23:35.514Z,33.50
2022-07-30T10:26:04.121Z,33.60
2022-07-30T10:28:34.627Z,33.50
2022-07-30T10:31:46.337Z,33.50
2022-07-30T10:33:52.658Z,33.10
2022-07-30T10:36:21.905Z,32.90
2022-07-30T10:38:52.650Z,33.00
2022-07-30T10:41:42.523Z,33.30
2022-07-30T10:44:26.397Z,33.60
2022-07-30T10:47:09.276Z,33.60
2022-07-30T10:49:41.122Z,33.80
2022-07-30T10:52:09.855Z,34.10
2022-07-30T10:54:39.483Z,34.40
2022-07-30T10:57:32.234Z,34.40
2022-07-30T11:00:00.042Z,34.70
2022-07-30T11:02:29.328Z,35.10
2022-07-30T11:05:44.066Z,35.30
2022-07-30T11:08:31.924Z,35.50
2022-07-30T11:11:21.115Z,35.90
2022-07-30T11:14:07.873Z,36.10
2022-07-30T11:16:34.791Z,36.10
2022-07-30T11:19:55.160Z,36.10
2022-07-30T11:22:27.053Z,36.20
2022-07-30T11:24:54.901Z,36.20
2022-07-30T11:27:46.466Z,36.20
2022-07-30T11:30:18.775Z,36.00
2022-07-30T11:33:03.905Z,35.70
2022-07-30T11:35:32.233Z,35.20
2022-07-30T11:38:15.689Z,35.20
2022-07-30T11:40:45.852Z,35.40
2022-07-30T11:43:35.578Z,35.70
2022-07-30T11:46:28.637Z,35.70
2022-07-30T11:48:59.850Z,35.70
2022-07-30T11:51:27.218Z,35.70
2022-07-30T11:54:04.073Z,35.90
2022-07-30T11:56:31.539Z,36.00
2022-07-30T11:59:03.673Z,36.10
2022-07-30T12:01:31.411Z,36.00
2022-07-30T12:03:58.082Z,36.10
2022-07-30T12:06:24.833Z,36.20
2022-07-30T12:08:58.226Z,36.30
2022-07-30T12:11:31.517Z,36.00
2022-07-30T12:14:00.133Z,35.80
2022-07-30T12:16:28.046Z,35.90
2022-07-30T12:18:55.346Z,35.70
2022-07-30T12:21:24.876Z,35.60
2022-07-30T12:23:55.680Z,35.50
2022-07-30T12:26:26.894Z,35.60
2022-07-30T12:28:55.086Z,35.70
2022-07-30T12:31:21.861Z,35.90
2022-07-30T12:33:48.563Z,35.90
2022-07-30T12:36:26.442Z,36.10
2022-07-30T12:38:54.536Z,36.30
2022-07-30T12:41:22.467Z,36.50
2022-07-30T12:43:56.258Z,36.50
2022-07-30T12:46:26.623Z,36.60
2022-07-30T12:48:57.895Z,36.80
2022-07-30T12:51:28.945Z,36.70
2022-07-30T12:53:57.128Z,36.80
2022-07-30T12:56:28.873Z,36.70
2022-07-30T12:58:58.170Z,36.80
2022-07-30T13:01:47.164Z,36.90
2022-07-30T13:04:14.485Z,36.90
2022-07-30T13:06:42.029Z,37.00
2022-07-30T13:09:21.603Z,37.10
2022-07-30T13:11:49.718Z,37.00
2022-07-30T13:14:17.354Z,36.80
2022-07-30T13:16:44.302Z,36.70
2022-07-30T13:19:12.091Z,36.50
2022-07-30T13:21:40.387Z,36.40
2022-07-30T13:24:17.935Z,36.40
2022-07-30T13:26:45.294Z,36.00
2022-07-30T13:29:13.450Z,36.00
2022-07-30T13:31:42.432Z,36.00
2022-07-30T13:34:10.751Z,36.00
2022-07-30T13:36:37.546Z,36.10
2022-07-30T13:39:04.357Z,36.20
2022-07-30T13:41:31.256Z,36.20
2022-07-30T13:43:57.947Z,35.80
2022-07-30T13:46:24.710Z,35.60
2022-07-30T13:48:51.516Z,35.60
2022-07-30T13:51:18.678Z,35.70
2022-07-30T13:53:45.502Z,35.70
2022-07-30T13:56:12.469Z,35.70
2022-07-30T13:58:40.153Z,35.80
2022-07-30T14:01:07.376Z,35.80
2022-07-30T14:03:35.239Z,35.70
2022-07-30T14:06:10.801Z,35.60
2022-07-30T14:08:39.967Z,35.60
2022-07-30T14:11:06.645Z,35.60
2022-07-30T14:13:33.350Z,35.40
2022-07-30T14:16:00.027Z,35.10
2022-07-30T14:18:26.785Z,34.90
2022-07-30T14:20:53.735Z,34.90
2022-07-30T14:23:20.689Z,34.90
2022-07-30T14:25:47.544Z,34.90
2022-07-30T14:28:14.998Z,35.00
2022-07-30T14:30:42.359Z,35.00
2022-07-30T14:33:09.428Z,35.10
2022-07-30T14:35:36.257Z,35.20
2022-07-30T14:38:03.538Z,35.00
2022-07-30T14:40:30.360Z,34.90
2022-07-30T14:42:57.926Z,34.90
2022-07-30T14:45:25.514Z,34.80
2022-07-30T14:47:52.349Z,34.70
2022-07-30T14:50:19.204Z,34.70
2022-07-30T14:52:47.468Z,34.50
2022-07-30T14:55:14.342Z,34.20
2022-07-30T14:57:41.082Z,34.00
2022-07-30T15:00:10.865Z,34.00
2022-07-30T15:02:38.109Z,33.90
2022-07-30T15:05:05.186Z,33.70
2022-07-30T15:07:34.546Z,33.60
2022-07-30T15:10:02.491Z,33.60
2022-07-30T15:12:29.262Z,33.60
2022-07-30T15:14:55.971Z,33.50
2022-07-30T15:17:22.663Z,33.40
2022-07-30T15:19:51.197Z,33.20
2022-07-30T15:22:19.639Z,32.70
2022-07-30T15:24:46.492Z,32.40
2022-07-30T15:27:13.168Z,32.10
2022-07-30T15:29:39.896Z,31.80
2022-07-30T15:32:07.198Z,31.70
2022-07-30T15:34:34.511Z,31.60
2022-07-30T15:37:02.602Z,31.50
2022-07-30T15:39:32.212Z,31.50
2022-07-30T15:42:00.658Z,31.50
2022-07-30T15:44:27.721Z,31.60
2022-07-30T15:46:54.938Z,31.70
2022-07-30T15:49:22.010Z,31.90
2022-07-30T15:51:49.040Z,32.00
2022-07-30T15:54:22.844Z,32.10
2022-07-30T15:56:51.230Z,32.00
2022-07-30T15:59:18.286Z,32.00
2022-07-30T16:01:45.451Z,32.10
2022-07-30T16:04:18.922Z,32.00
2022-07-30T16:06:47.830Z,31.90
2022-07-30T16:09:15.446Z,31.70
2022-07-30T16:11:43.013Z,31.70
2022-07-30T16:14:10.375Z,31.60
2022-07-30T16:16:37.430Z,31.50
2022-07-30T16:19:04.422Z,31.40
2022-07-30T16:21:31.311Z,31.40
2022-07-30T16:23:58.079Z,31.40
2022-07-30T16:26:24.754Z,31.30
2022-07-30T16:28:51.419Z,31.10
2022-07-30T16:31:18.263Z,31.00
2022-07-30T16:33:45.011Z,30.80
2022-07-30T16:36:11.797Z,30.70
2022-07-30T16:38:38.486Z,30.60
2022-07-30T16:41:05.278Z,30.60
2022-07-30T16:43:33.081Z,30.50
2022-07-30T16:46:00.131Z,30.50
2022-07-30T16:48:27.106Z,30.30
2022-07-30T16:50:54.707Z,30.20
2022-07-30T16:53:21.468Z,30.20
2022-07-30T16:55:48.234Z,30.20
2022-07-30T16:58:14.935Z,30.10
2022-07-30T17:00:41.749Z,30.00
2022-07-30T17:03:08.674Z,30.00
2022-07-30T17:05:35.767Z,30.00
2022-07-30T17:08:05.459Z,29.90
2022-07-30T17:10:32.239Z,29.80
2022-07-30T17:12:58.901Z,29.80
2022-07-30T17:15:32.852Z,29.70
2022-07-30T17:18:00.927Z,29.60
2022-07-30T17:20:29.046Z,29.60
2022-07-30T17:22:56.193Z,29.50
2022-07-30T17:25:27.479Z,29.40
2022-07-30T17:27:58.557Z,29.40
2022-07-30T17:30:27.473Z,29.40
2022-07-30T17:32:54.235Z,29.20
2022-07-30T17:35:21.076Z,29.20
2022-07-30T17:37:47.980Z,29.10
2022-07-30T17:40:28.678Z,29.00
2022-07-30T17:43:03.601Z,28.90
2022-07-30T17:45:32.531Z,28.80
2022-07-30T17:48:01.327Z,28.70
2022-07-30T17:50:28.753Z,28.60
2022-07-30T17:52:55.427Z,28.60
2022-07-30T17:55:22.279Z,28.50
2022-07-30T17:57:48.990Z,28.30
2022-07-30T18:00:16.179Z,28.10
2022-07-30T18:02:42.895Z,28.00
2022-07-30T18:05:10.631Z,27.90
2022-07-30T18:07:37.571Z,27.80
2022-07-30T18:10:04.817Z,27.70
2022-07-30T18:12:31.574Z,27.60
2022-07-30T18:14:59.234Z,27.40
2022-07-30T18:17:25.983Z,27.30
2022-07-30T18:19:53.469Z,27.30
2022-07-30T18:22:29.012Z,27.10
2022-07-30T18:24:56.524Z,27.00
2022-07-30T18:27:23.726Z,27.00
2022-07-30T18:29:50.388Z,26.80
2022-07-30T18:32:17.098Z,26.80
2022-07-30T18:34:43.955Z,26.60
2022-07-30T18:37:10.620Z,26.60
2022-07-30T18:39:37.289Z,26.40
2022-07-30T18:42:04.538Z,26.40
2022-07-30T18:44:31.600Z,26.30
2022-07-30T18:46:58.269Z,26.30
2022-07-30T18:49:40.384Z,26.20
2022-07-30T18:52:07.595Z,26.10
2022-07-30T18:54:35.523Z,26.00
2022-07-30T18:57:02.417Z,25.90
2022-07-30T18:59:29.463Z,25.80
2022-07-30T19:01:56.156Z,25.80
2022-07-30T19:04:22.862Z,25.70
2022-07-30T19:06:49.613Z,25.60
2022-07-30T19:09:17.949Z,25.50
2022-07-30T19:11:46.046Z,25.40
2022-07-30T19:14:14.010Z,25.40
2022-07-30T19:16:41.920Z,25.30
2022-07-30T19:19:08.849Z,25.20
2022-07-30T19:21:35.748Z,25.20
2022-07-30T19:24:02.580Z,25.10
2022-07-30T19:26:29.310Z,25.00
2022-07-30T19:28:56.048Z,25.00
2022-07-30T19:31:22.872Z,24.90
2022-07-30T19:33:49.624Z,24.90
2022-07-30T19:36:20.559Z,24.80
2022-07-30T19:38:48.812Z,24.70
2022-07-30T19:41:16.274Z,24.60
2022-07-30T19:43:43.021Z,24.60
2022-07-30T19:46:24.280Z,24.40
2022-07-30T19:48:51.041Z,24.30
2022-07-30T19:51:20.741Z,24.30
2022-07-30T19:54:04.662Z,24.30
2022-07-30T19:56:37.698Z,24.20
2022-07-30T19:59:14.717Z,24.20
2022-07-30T20:01:42.840Z,24.10
2022-07-30T20:04:11.112Z,24.00
2022-07-30T20:06:39.888Z,24.00
2022-07-30T20:09:15.082Z,24.00
2022-07-30T20:11:43.620Z,23.90
2022-07-30T20:14:10.490Z,23.90
2022-07-30T20:16:37.434Z,23.90
2022-07-30T20:19:04.722Z,23.90
2022-07-30T20:21:57.088Z,23.80
2022-07-30T20:24:20.207Z,23.80
2022-07-30T20:26:47.689Z,23.80
2022-07-30T20:29:19.458Z,23.70
2022-07-30T20:31:49.976Z,23.70
2022-07-30T20:34:20.614Z,23.50
2022-07-30T20:36:50.757Z,23.50
2022-07-30T20:39:18.638Z,23.40
2022-07-30T20:41:46.630Z,23.40
2022-07-30T20:44:23.025Z,23.20
2022-07-30T20:46:50.735Z,23.10
2022-07-30T20:49:23.645Z,23.00
2022-07-30T20:51:55.700Z,23.00
2022-07-30T20:54:22.435Z,22.80
2022-07-30T20:56:51.066Z,22.80
2022-07-30T20:59:18.220Z,22.70
2022-07-30T21:01:50.455Z,22.60
2022-07-30T21:04:25.552Z,22.60
2022-07-30T21:06:52.971Z,22.60
2022-07-30T21:09:20.302Z,22.50
2022-07-30T21:11:50.604Z,22.50
2022-07-30T21:14:18.693Z,22.50
2022-07-30T21:16:46.651Z,22.40
2022-07-30T21:19:17.534Z,22.40
2022-07-30T21:21:48.272Z,22.40
2022-07-30T21:24:18.690Z,22.40
2022-07-30T21:26:48.778Z,22.40
2022-07-30T21:29:16.759Z,22.30
2022-07-30T21:32:08.739Z,22.20
2022-07-30T21:34:35.915Z,22.10
2022-07-30T21:37:07.382Z,21.80
2022-07-30T21:39:39.952Z,21.70
2022-07-30T21:42:09.796Z,21.60
2022-07-30T21:44:38.083Z,21.40
2022-07-30T21:47:09.976Z,21.40
2022-07-30T21:49:37.631Z,21.50
2022-07-30T21:52:05.120Z,21.50
2022-07-30T21:54:44.996Z,21.50
2022-07-30T21:57:12.519Z,21.50
2022-07-30T21:59:40.455Z,21.60
2022-07-30T22:02:15.977Z,21.50
2022-07-30T22:04:47.620Z,21.50
2022-07-30T22:07:17.590Z,21.40
2022-07-30T22:09:45.122Z,21.50
2022-07-30T22:14:59.188Z,21.30
2022-07-30T22:17:37.233Z,21.30
2022-07-30T22:20:14.682Z,21.20
2022-07-30T22:22:41.353Z,21.30
2022-07-30T22:25:09.849Z,21.30
2022-07-30T22:27:56.426Z,21.30
2022-07-30T22:30:27.032Z,21.30
2022-07-30T22:32:54.920Z,21.30
2022-07-30T22:35:32.194Z,21.40
2022-07-30T22:38:01.497Z,21.40
2022-07-30T22:40:28.188Z,21.40
2022-07-30T22:42:54.867Z,21.30
2022-07-30T22:45:35.969Z,21.10
2022-07-30T22:48:10.734Z,21.10
2022-07-30T22:50:40.294Z,21.20
2022-07-30T22:54:03.680Z,21.20
2022-07-30T22:55:54.946Z,21.20
2022-07-30T22:58:22.168Z,21.20
2022-07-30T23:00:53.130Z,21.00
2022-07-30T23:03:20.121Z,21.00
2022-07-30T23:05:55.913Z,21.00
2022-07-30T23:08:29.596Z,21.00
2022-07-30T23:10:57.646Z,21.10
2022-07-30T23:12:31.543Z,21.40
2022-07-30T23:13:24.298Z,21.10
2022-07-30T23:15:50.989Z,21.00
2022-07-30T23:18:17.647Z,21.00
2022-07-30T23:20:44.361Z,21.00
2022-07-30T23:23:11.523Z,21.00
2022-07-30T23:25:39.368Z,21.00
2022-07-30T23:28:06.521Z,21.00
2022-07-30T23:30:34.431Z,21.00
2022-07-30T23:33:01.642Z,21.10
2022-07-30T23:35:28.308Z,21.10
2022-07-30T23:37:54.984Z,21.20
2022-07-30T23:40:22.414Z,21.20
2022-07-30T23:42:50.828Z,21.20
2022-07-30T23:45:18.408Z,21.20
2022-07-30T23:48:00.487Z,21.10
2022-07-30T23:50:31.468Z,21.10
2022-07-30T23:52:58.551Z,21.10
2022-07-30T23:55:25.263Z,21.10
2022-07-30T23:57:51.936Z,21.10
